Aviation Digital Data Service (ADDS)

Output produced by METARs form (0244 UTC 24 July 2017)
found at http://www.aviationweather.gov/adds/metars/
 
KHBG 232357Z 2400/2424 25008KT P6SM VCSH SCT050 
     FM240200 23003KT P6SM SKC 
     FM240900 VRB03KT P6SM BKN010 
     FM241100 00000KT P6SM BKN015 
     FM241500 26006KT P6SM SCT025 
     FM241900 26008KT P6SM VCTS SCT035CB 
     TEMPO 2420/2424 3SM TSRA BKN025CB
       
KHIE 232320Z 2400/2424 00000KT P6SM BKN050 
     FM241300 13005KT 5SM -RA BR OVC025
       
TAF KHIF 232102Z 2321/2503 29009KT 9999 SCT200 QNH3003INS 
     BECMG 2404/2405 11012KT 9999 SCT200 QNH3004INS 
     BECMG 2416/2417 23009KT 9999 SCT100 QNH2999INS 
     TEMPO 2422/2501 25025G35KT VCTS BKN080CB 
     BECMG 2500/2501 15009KT 9999 SCT100 QNH3000INS TX35/2322Z TN18/2413Z
       
KHIO 232325Z 2400/2424 33012G22KT P6SM SKC 
     FM240700 32010KT P6SM SKC 
     FM241100 VRB02KT P6SM SKC 
     FM241900 01005KT P6SM SKC
       
KHKS 232357Z 2400/2424 21005KT P6SM SCT020 
     FM240900 VRB03KT P6SM BKN015 
     FM241500 23005KT P6SM SCT025 
     FM242000 20005KT P6SM VCTS SCT035CB 
     TEMPO 2421/2424 3SM TSRA BKN025CB
       
KHKY 232320Z 2400/2424 22005KT P6SM BKN060 
     FM240900 26003KT 5SM BR SCT110 
     FM241600 27005KT P6SM SCT050 BKN250 
     PROB30 2422/2424 4SM -TSRA BKN050CB
       
KHLG 232329Z 2400/2424 23005KT 5SM -TSRA BKN035CB 
     TEMPO 2400/2403 3SM -TSRA BKN040CB 
     FM240600 25004KT 2SM BR BKN015 
     FM240800 26004KT 1SM BR SCT015 
     FM241300 26005KT 2SM BR SCT008 
     FM241400 27006KT P6SM SCT050
       
KHLN 232320Z 2400/2424 VRB06KT P6SM FEW110 FEW250
       
KHND 240225Z 2402/2424 13008KT P6SM FEW150 SCT250 
     FM240245 13020G30KT P6SM SCT100 BKN150 
     FM240400 13008KT P6SM FEW100 SCT150 
     FM240900 18009KT P6SM SCT150 BKN250 
     FM241700 16012KT P6SM SCT100 BKN150
       
KHOB 232321Z 2400/2424 12007KT P6SM SCT060 SCT120 BKN200 
     FM240900 21003KT P6SM BKN200
       
KHON 232320Z 2400/2424 02006KT P6SM SKC 
     FM240200 07006KT P6SM SKC 
     FM240500 11006KT P6SM SKC 
     FM240900 14007KT P6SM SKC 
     FM241500 15013G19KT P6SM SKC 
     FM241900 15016G24KT P6SM FEW120
       
TAF KHOP 240000Z 2400/2506 28009KT 9999 SCT080 QNH2980INS 
     BECMG 2407/2408 VRB06KT 8000 BR SCT006 SCT025 QNH2988INS 
     BECMG 2415/2416 VRB06KT 9999 NSW FEW010 SCT030 BKN050 QNH2991INS 
     TEMPO 2502/2506 26015G25KT 6000 -TSRA BKN020CB OVC050 TX36/2421Z TN23/2409Z
       
KHOT 232320Z 2400/2424 22005KT P6SM VCTS SCT045CB BKN250 
     TEMPO 2400/2404 4SM -TSRA BKN040CB 
     FM240400 VRB03KT P6SM SCT100 BKN250 
     TEMPO 2410/2414 5SM BR 
     FM241500 24004KT P6SM SCT045 SCT250
       
KHOU 232330Z 2400/2424 18009KT P6SM FEW050 SCT150 BKN250 
     FM240600 19007KT P6SM FEW025 BKN150 
     FM241400 22008KT P6SM SCT025 SCT150 
     FM241700 21010KT P6SM FEW050 SCT150
       
KHPN 240237Z 2403/2424 10008KT P6SM BKN020 
     FM240500 10008KT 6SM -SHRA SCT015 OVC020 
     FM240700 09009KT 4SM SHRA BR OVC015 
     FM240900 08010KT 4SM SHRA OVC008 
     FM241500 06011G18KT 6SM -SHRA OVC025 
     FM241900 05010KT P6SM BKN025 
     FM242200 04009KT P6SM BKN050 AMD NOT SKED
       
KHQM 232320Z 2400/2424 27015G20KT P6SM SKC 
     FM240400 27010KT P6SM SKC 
     FM241000 VRB03KT P6SM BKN005 
     FM241700 33007KT P6SM SKC
       
KHRL 232335Z 2400/2424 16018G25KT P6SM SKC 
     FM240300 15010KT P6SM FEW020 
     FM241500 16014G19KT P6SM SCT030 
     FM241800 15020G25KT P6SM FEW045
       
KHRO 232320Z 2400/2424 VRB05KT P6SM SCT120 BKN200 
     TEMPO 2410/2414 5SM BR 
     FM241500 06005KT P6SM SCT045 SCT250
       
TAF KHST 240000Z 2400/2506 12006KT 9999 FEW050 SCT250 QNH3000INS 
     BECMG 2415/2416 16006KT 9999 FEW030 SCT250 QNH3005INS 
     BECMG 2417/2418 13009KT 9999 VCTS SCT050CB BKN250 QNH3002INS 
     TEMPO 2419/2423 VRB12G18KT 6000 -TSRA BKN040CB 
     BECMG 2423/2424 12006KT 9999 NSW SCT030 SCT250 QNH3006INS TX32/2417Z TN25/2406Z
       
KHSV 232338Z 2400/2424 VRB06KT P6SM VCSH SCT050 BKN120 
     FM240200 VRB03KT 6SM BR FEW060 BKN150 
     FM240900 20004KT P6SM VCSH BKN050 
     FM241700 24005KT P6SM SCT040 
     PROB30 2418/2424 -TSRA BKN040CB
       
KHTS 232330Z 2400/2424 21004KT P6SM BKN040 
     FM240400 VRB03KT P6SM BKN250 
     FM240900 00000KT P6SM BKN025 
     FM241400 23005KT P6SM BKN035
       
KHUF 232320Z 2400/2424 30005KT P6SM SCT040 
     FM240400 VRB03KT P6SM FEW250 
     FM241100 33004KT 4SM BR FEW140 
     FM241300 35005KT P6SM FEW150
       
KHUM 232340Z 2400/2424 24004KT P6SM BKN150 
     FM240600 VRB03KT P6SM VCTS SCT035CB BKN100 
     FM240900 23003KT P6SM SCT030 BKN090 
     PROB30 2409/2412 4SM TSRA BKN030CB 
     FM241200 23005KT 6SM -SHRA VCTS SCT030CB BKN090 
     FM241800 26007KT P6SM SCT025 BKN100 
     PROB30 2418/2424 4SM TSRA BKN025CB BKN030
       
KHUT 232320Z 2400/2424 05005KT P6SM SKC 
     FM241200 09005KT P6SM SCT250
       
KHVR 232320Z 2400/2424 22007KT P6SM FEW090 FEW250 
     FM240900 31013KT P6SM SCT050 SCT250 
     FM241800 30010KT P6SM FEW090 FEW250
       
KHYA 232325Z 2400/2424 07010KT P6SM SCT100 
     FM241000 10008KT P6SM -RA BKN090 
     FM241300 09010G20KT 2SM RA BR SCT010 OVC040 
     FM241500 07013G30KT 2SM -RA BR OVC008 
     FM242100 06013G26KT 5SM BR VCSH BKN008
       
KHYR 240206Z 2402/2424 05008KT P6SM BKN018 
     FM240500 04003KT 5SM BR SCT005 
     FM240700 VRB03KT 1SM BR BKN005 
     FM241400 15005KT P6SM FEW010 
     FM241700 17006KT P6SM SCT050
       
KHYS 232320Z 2400/2424 08005KT P6SM FEW250 
     FM241800 17010KT P6SM FEW250
       
KHUL 232320Z 2400/2424 VRB03KT P6SM FEW070 SCT250 
     FM241800 11004KT P6SM SCT090 BKN200